Terminal Aerodrome Forecast
Issued by NWS Mt. Holly, NJ

Current Version | Previous Version | Text Only | Print | Product List | Glossary On
Versions: 1 2 3 4 5 6 7 8 9 10 11 12 13 14 15 16 17 18 19 20 21 22
000
FTAK31 PANC 250530
TAFABE
TAF
PABE 250530Z 2506/2606 18011KT P6SM SCT050 OVC150
      TEMPO 2509/2512 3SM BR BKN005
     FM251200 18011KT 3SM BR BKN005
     FM251800 17010KT P6SM VCFG SCT010 BKN060
     FM252000 19011KT 3SM -RASN OVC005
     FM260300 24010KT P6SM VCSH BKN015=

USA.gov is the U.S. government's official web portal to all federal, state and local government web resources and services.